createdAt,value
2022-12-11T00:04:26.148Z,-0.51
2022-12-11T00:09:28.870Z,-0.50
2022-12-11T00:14:31.640Z,-0.51
2022-12-11T00:19:34.191Z,-0.53
2022-12-11T00:24:39.121Z,-0.53
2022-12-11T00:29:41.731Z,-0.53
2022-12-11T00:34:43.991Z,-0.53
2022-12-11T00:39:46.551Z,-0.53
2022-12-11T00:44:48.797Z,-0.52
2022-12-11T00:49:50.915Z,-0.53
2022-12-11T00:54:53.702Z,-0.54
2022-12-11T00:59:59.120Z,-0.55
2022-12-11T01:05:01.346Z,-0.56
2022-12-11T01:10:23.270Z,-0.57
2022-12-11T01:15:28.022Z,-0.56
2022-12-11T01:20:30.239Z,-0.56
2022-12-11T01:25:33.245Z,-0.57
2022-12-11T01:30:36.395Z,-0.59
2022-12-11T01:35:39.885Z,-0.61
2022-12-11T01:40:52.567Z,-0.63
2022-12-11T01:45:54.679Z,-0.64
2022-12-11T01:51:02.147Z,-0.67
2022-12-11T01:56:05.236Z,-0.68
2022-12-11T02:01:08.881Z,-0.69
2022-12-11T02:06:30.934Z,-0.72
2022-12-11T02:12:11.228Z,-0.76
2022-12-11T02:17:19.800Z,-0.77
2022-12-11T02:22:50.743Z,-0.78
2022-12-11T02:28:14.786Z,-0.80
2022-12-11T02:33:19.393Z,-0.81
2022-12-11T02:38:32.349Z,-0.82
2022-12-11T02:43:35.008Z,-0.83
2022-12-11T02:48:37.796Z,-0.83
2022-12-11T02:53:41.658Z,-0.85
2022-12-11T02:58:52.766Z,-0.86
2022-12-11T03:03:59.100Z,-0.87
2022-12-11T03:09:01.535Z,-0.88
2022-12-11T03:14:03.936Z,-0.90
2022-12-11T03:19:12.837Z,-0.93
2022-12-11T03:24:23.790Z,-0.96
2022-12-11T03:29:31.433Z,-0.98
2022-12-11T03:34:41.776Z,-1.01
2022-12-11T03:39:52.136Z,-1.01
2022-12-11T03:44:57.044Z,-1.04
2022-12-11T03:49:59.434Z,-1.04
2022-12-11T03:55:03.984Z,-1.06
2022-12-11T04:00:11.785Z,-1.08
2022-12-11T04:05:17.210Z,-1.09
2022-12-11T04:10:19.420Z,-1.09
2022-12-11T04:15:21.514Z,-1.09
2022-12-11T04:20:42.365Z,-1.10
2022-12-11T04:25:44.637Z,-1.09
2022-12-11T04:30:50.045Z,-1.09
2022-12-11T04:35:52.262Z,-1.09
2022-12-11T04:41:00.896Z,-1.11
2022-12-11T04:46:07.403Z,-1.13
2022-12-11T04:51:12.810Z,-1.16
2022-12-11T04:56:16.550Z,-1.16
2022-12-11T05:01:21.689Z,-1.18
2022-12-11T05:06:23.860Z,-1.19
2022-12-11T05:11:26.032Z,-1.18
2022-12-11T05:16:28.203Z,-1.19
2022-12-11T05:21:34.786Z,-1.22
2022-12-11T05:26:37.434Z,-1.22
2022-12-11T05:31:39.564Z,-1.23
2022-12-11T05:36:41.976Z,-1.29
2022-12-11T05:41:44.025Z,-1.29
2022-12-11T05:46:46.385Z,-1.29
2022-12-11T05:51:48.585Z,-1.29
2022-12-11T05:56:51.066Z,-1.30
2022-12-11T06:01:53.224Z,-1.33
2022-12-11T06:06:55.434Z,-1.31
2022-12-11T06:11:57.555Z,-1.31
2022-12-11T06:16:59.661Z,-1.30
2022-12-11T06:22:01.900Z,-1.32
2022-12-11T06:27:04.131Z,-1.35
2022-12-11T06:32:06.641Z,-1.36
2022-12-11T06:37:08.989Z,-1.36
2022-12-11T06:42:13.358Z,-1.37
2022-12-11T06:47:15.514Z,-1.37
2022-12-11T06:52:18.711Z,-1.37
2022-12-11T06:57:21.657Z,-1.37
2022-12-11T07:02:24.565Z,-1.37
2022-12-11T07:07:34.183Z,-1.38
2022-12-11T07:12:36.952Z,-1.39
2022-12-11T07:17:42.656Z,-1.39
2022-12-11T07:22:47.064Z,-1.39
2022-12-11T07:27:49.952Z,-1.41
2022-12-11T07:32:52.177Z,-1.40
2022-12-11T07:37:54.400Z,-1.39
2022-12-11T07:42:59.293Z,-1.40
2022-12-11T07:48:18.035Z,-1.41
2022-12-11T07:53:21.497Z,-1.41
2022-12-11T07:58:27.710Z,-1.41
2022-12-11T08:03:35.719Z,-1.41
2022-12-11T08:08:50.595Z,-1.40
2022-12-11T08:13:53.463Z,-1.38
2022-12-11T08:18:58.179Z,-1.38
2022-12-11T08:24:01.839Z,-1.38
2022-12-11T08:29:09.176Z,-1.37
2022-12-11T08:34:13.726Z,-1.40
2022-12-11T08:39:16.244Z,-1.40
2022-12-11T08:44:19.577Z,-1.41
2022-12-11T08:49:23.599Z,-1.41
2022-12-11T08:54:28.986Z,-1.39
2022-12-11T08:59:54.144Z,-1.44
2022-12-11T09:04:57.862Z,-1.50
2022-12-11T09:10:06.051Z,-1.53
2022-12-11T09:15:16.654Z,-1.55
2022-12-11T09:20:23.024Z,-1.51
2022-12-11T09:25:31.578Z,-1.52
2022-12-11T09:30:42.422Z,-1.55
2022-12-11T09:36:02.771Z,-1.58
2022-12-11T09:42:11.860Z,-1.59
2022-12-11T09:47:41.183Z,-1.57
2022-12-11T09:52:59.612Z,-1.57
2022-12-11T09:58:17.425Z,-1.62
2022-12-11T10:03:36.045Z,-1.64
2022-12-11T10:08:59.776Z,-1.65
2022-12-11T10:14:36.862Z,-1.61
2022-12-11T10:20:24.851Z,-1.58
2022-12-11T10:26:09.429Z,-1.56
2022-12-11T10:31:38.919Z,-1.56
2022-12-11T10:36:42.182Z,-1.58
2022-12-11T10:41:47.381Z,-1.52
2022-12-11T10:47:11.156Z,-1.50
2022-12-11T10:52:22.409Z,-1.53
2022-12-11T10:57:35.148Z,-1.53
2022-12-11T11:02:51.354Z,-1.52
2022-12-11T11:08:14.716Z,-1.54
2022-12-11T11:13:31.685Z,-1.59
2022-12-11T11:18:40.215Z,-1.61
2022-12-11T11:23:54.949Z,-1.65
2022-12-11T11:28:57.248Z,-1.72
2022-12-11T11:34:06.076Z,-1.74
2022-12-11T11:39:08.289Z,-1.76
2022-12-11T11:44:18.271Z,-1.80
2022-12-11T11:49:29.957Z,-1.83
2022-12-11T11:54:58.214Z,-1.84
2022-12-11T12:00:33.687Z,-1.86
2022-12-11T12:05:47.239Z,-1.86
2022-12-11T12:11:07.589Z,-1.86
2022-12-11T12:16:51.071Z,-1.83
2022-12-11T12:21:49.140Z,-1.83
2022-12-11T12:27:52.006Z,-1.80
2022-12-11T12:33:12.038Z,-1.81
2022-12-11T12:38:17.597Z,-1.84
2022-12-11T12:44:05.738Z,-1.85
2022-12-11T12:49:24.170Z,-1.89
2022-12-11T12:54:31.356Z,-1.90
2022-12-11T12:59:41.856Z,-1.94
2022-12-11T13:04:58.598Z,-1.93
2022-12-11T13:10:30.613Z,-1.92
2022-12-11T13:15:42.555Z,-1.90
2022-12-11T13:20:50.764Z,-1.87
2022-12-11T13:26:09.343Z,-1.88
2022-12-11T13:31:19.316Z,-1.87
2022-12-11T13:36:35.862Z,-1.86
2022-12-11T13:41:40.152Z,-1.94
2022-12-11T13:46:43.735Z,-1.98
2022-12-11T13:51:57.307Z,-2.01
2022-12-11T13:57:15.859Z,-2.03
2022-12-11T14:02:38.770Z,-2.03
2022-12-11T14:07:49.809Z,-1.99
2022-12-11T14:13:25.302Z,-2.01
2022-12-11T14:18:31.316Z,-2.03
2022-12-11T14:23:35.747Z,-2.05
2022-12-11T14:28:42.349Z,-2.05
2022-12-11T14:34:03.931Z,-2.05
2022-12-11T14:39:44.670Z,-2.03
2022-12-11T14:45:07.069Z,-2.05
2022-12-11T14:50:31.852Z,-2.08
2022-12-11T14:55:40.358Z,-2.11
2022-12-11T15:01:12.184Z,-2.14
2022-12-11T15:06:52.093Z,-2.16
2022-12-11T15:12:14.893Z,-2.21
2022-12-11T15:17:26.320Z,-2.23
2022-12-11T15:22:47.733Z,-2.25
2022-12-11T15:28:46.349Z,-2.27
2022-12-11T15:34:25.930Z,-2.28
2022-12-11T15:39:40.128Z,-2.29
2022-12-11T15:44:49.049Z,-2.32
2022-12-11T15:50:09.705Z,-2.37
2022-12-11T15:55:23.417Z,-2.39
2022-12-11T16:00:32.432Z,-2.40
2022-12-11T16:05:49.815Z,-2.39
2022-12-11T16:10:55.912Z,-2.39
2022-12-11T16:16:03.082Z,-2.38
2022-12-11T16:21:16.837Z,-2.37
2022-12-11T16:26:26.876Z,-2.35
2022-12-11T16:31:49.290Z,-2.34
2022-12-11T16:36:55.666Z,-2.30
2022-12-11T16:41:58.057Z,-2.29
2022-12-11T16:47:00.327Z,-2.29
2022-12-11T16:52:14.390Z,-2.32
2022-12-11T16:57:24.521Z,-2.34
2022-12-11T17:02:29.379Z,-2.35
2022-12-11T17:07:34.864Z,-2.35
2022-12-11T17:12:37.521Z,-2.32
2022-12-11T17:17:44.005Z,-2.34
2022-12-11T17:22:49.506Z,-2.33
2022-12-11T17:28:04.045Z,-2.33
2022-12-11T17:33:07.018Z,-2.29
2022-12-11T17:38:09.203Z,-2.30
2022-12-11T17:43:11.927Z,-2.29
2022-12-11T17:48:15.652Z,-2.30
2022-12-11T17:53:19.055Z,-2.29
2022-12-11T17:58:23.036Z,-2.28
2022-12-11T18:03:27.690Z,-2.29
2022-12-11T18:08:30.411Z,-2.31
2022-12-11T18:13:34.495Z,-2.31
2022-12-11T18:18:36.886Z,-2.32
2022-12-11T18:23:45.776Z,-2.32
2022-12-11T18:28:53.632Z,-2.30
2022-12-11T18:33:55.909Z,-2.30
2022-12-11T18:38:58.485Z,-2.30
2022-12-11T18:44:09.914Z,-2.30
2022-12-11T18:49:16.111Z,-2.31
2022-12-11T18:54:30.744Z,-2.31
2022-12-11T18:59:37.195Z,-2.32
2022-12-11T19:04:41.041Z,-2.30
2022-12-11T19:09:48.320Z,-2.30
2022-12-11T19:14:51.292Z,-2.33
2022-12-11T19:19:55.983Z,-2.34
2022-12-11T19:25:00.574Z,-2.35
2022-12-11T19:30:15.904Z,-2.37
2022-12-11T19:35:39.780Z,-2.38
2022-12-11T19:41:05.096Z,-2.40
2022-12-11T19:46:14.018Z,-2.42
2022-12-11T19:51:31.050Z,-2.43
2022-12-11T19:56:37.805Z,-2.42
2022-12-11T20:01:40.236Z,-2.41
2022-12-11T20:06:46.133Z,-2.41
2022-12-11T20:11:48.699Z,-2.40
2022-12-11T20:17:11.084Z,-2.39
2022-12-11T20:22:15.336Z,-2.39
2022-12-11T20:27:19.903Z,-2.37
2022-12-11T20:32:30.304Z,-2.36
2022-12-11T20:37:36.422Z,-2.36
2022-12-11T20:42:40.331Z,-2.34
2022-12-11T20:47:42.471Z,-2.33
2022-12-11T20:52:44.600Z,-2.33
2022-12-11T20:57:46.954Z,-2.32
2022-12-11T21:02:50.148Z,-2.29
2022-12-11T21:07:55.648Z,-2.29
2022-12-11T21:12:59.366Z,-2.29
2022-12-11T21:18:08.366Z,-2.30
2022-12-11T21:23:19.004Z,-2.29
2022-12-11T21:28:35.403Z,-2.29
2022-12-11T21:33:38.175Z,-2.28
2022-12-11T21:38:43.270Z,-2.31
2022-12-11T21:45:06.960Z,-2.34
2022-12-11T21:49:16.380Z,-2.36
2022-12-11T21:54:22.939Z,-2.39
2022-12-11T21:59:30.708Z,-2.41
2022-12-11T22:04:38.896Z,-2.43
2022-12-11T22:10:00.094Z,-2.45
2022-12-11T22:15:14.677Z,-2.46
2022-12-11T22:20:21.057Z,-2.46
2022-12-11T22:25:23.446Z,-2.47
2022-12-11T22:30:28.594Z,-2.48
2022-12-11T22:35:30.802Z,-2.48
2022-12-11T22:40:36.153Z,-2.47
2022-12-11T22:45:39.838Z,-2.46
2022-12-11T22:50:43.390Z,-2.47
2022-12-11T22:55:45.392Z,-2.47
2022-12-11T23:00:52.364Z,-2.47
2022-12-11T23:05:55.539Z,-2.46
2022-12-11T23:11:00.341Z,-2.43
2022-12-11T23:16:06.688Z,-2.42
2022-12-11T23:21:11.362Z,-2.41
2022-12-11T23:26:21.359Z,-2.40
2022-12-11T23:31:27.219Z,-2.41
2022-12-11T23:36:32.738Z,-2.42
2022-12-11T23:41:37.802Z,-2.42
2022-12-11T23:46:42.224Z,-2.42
2022-12-11T23:51:47.293Z,-2.44
2022-12-11T23:56:50.819Z,-2.41
